Time;durP1;ratioP1;P1;durP2;ratioP2;P2;SDS_P1;SDS_P2;PMS_P1;PMS_P2;Temp;Humidity;BMP_temperature;BMP_pressure;BME280_temperature;BME280_humidity;BME280_pressure;Samples;Min_cycle;Max_cycle;Signal;HPM_P1;HPM_P2
2021/03/11 00:00:42;;;;;;;1999.90;999.90;;;7.50;99.90;;;;;;4864856;29;20196;-80
2021/03/11 00:03:10;;;;;;;1999.90;999.90;;;7.50;99.90;;;;;;4864316;29;20195;-80
2021/03/11 00:05:36;;;;;;;1999.90;999.90;;;7.50;99.90;;;;;;4864533;29;20193;-80
2021/03/11 00:08:03;;;;;;;1999.90;999.90;;;7.60;99.90;;;;;;4865350;29;20213;-80
2021/03/11 00:10:30;;;;;;;1999.90;999.90;;;7.60;99.90;;;;;;4865429;29;20168;-80
2021/03/11 00:12:55;;;;;;;1999.90;999.90;;;7.60;99.90;;;;;;4862961;29;20254;-80
2021/03/11 00:15:24;;;;;;;1999.90;999.90;;;7.60;99.90;;;;;;4864002;29;20246;-80
2021/03/11 00:17:50;;;;;;;1999.90;999.90;;;7.70;99.90;;;;;;4864574;29;20174;-80
2021/03/11 00:20:25;;;;;;;1999.90;999.90;;;7.80;99.90;;;;;;4864754;29;20280;-80
2021/03/11 00:22:51;;;;;;;1999.90;999.90;;;7.80;99.90;;;;;;4864712;29;20170;-80
2021/03/11 00:25:20;;;;;;;1999.90;999.90;;;7.80;99.90;;;;;;4864729;29;20175;-80
2021/03/11 00:27:46;;;;;;;1999.90;999.90;;;7.80;99.90;;;;;;4863637;29;20175;-80
2021/03/11 00:30:13;;;;;;;1999.90;999.90;;;7.90;99.90;;;;;;4864519;29;20175;-80
2021/03/11 00:32:39;;;;;;;1999.90;999.90;;;8.00;99.90;;;;;;4864558;29;20198;-80
2021/03/11 00:35:10;;;;;;;1999.90;999.90;;;8.00;99.90;;;;;;4863710;29;20210;-81
2021/03/11 00:37:37;;;;;;;1999.90;999.90;;;8.10;99.90;;;;;;4863238;29;20175;-80
2021/03/11 00:40:05;;;;;;;1999.90;999.90;;;8.10;99.90;;;;;;4862393;29;20198;-81
2021/03/11 00:42:31;;;;;;;1999.90;999.90;;;8.10;99.90;;;;;;4864398;29;20175;-81
2021/03/11 00:44:56;;;;;;;1999.90;999.90;;;8.00;99.90;;;;;;4864505;29;20203;-81
2021/03/11 00:47:23;;;;;;;1999.90;999.90;;;8.00;99.90;;;;;;4863807;29;20632;-81
2021/03/11 00:49:48;;;;;;;1999.90;999.90;;;8.00;99.90;;;;;;4864632;29;20182;-81
2021/03/11 00:52:14;;;;;;;1999.90;999.90;;;8.00;99.90;;;;;;4864912;29;20171;-81
2021/03/11 00:54:40;;;;;;;1999.90;999.90;;;8.00;99.90;;;;;;4863815;29;20514;-81
2021/03/11 00:57:07;;;;;;;1999.90;999.90;;;8.10;99.90;;;;;;4863948;29;20179;-80
2021/03/11 00:59:33;;;;;;;1999.90;999.90;;;8.10;99.90;;;;;;4863789;29;20175;-80
2021/03/11 01:01:59;;;;;;;1999.90;999.90;;;8.10;99.90;;;;;;4864113;29;20170;-80
2021/03/11 01:04:25;;;;;;;1999.90;999.90;;;8.20;99.90;;;;;;4864033;29;20563;-80
2021/03/11 01:06:50;;;;;;;1999.90;999.90;;;8.20;99.90;;;;;;4863915;29;20238;-81
2021/03/11 01:09:16;;;;;;;1999.90;999.90;;;8.30;99.90;;;;;;4863653;29;20176;-81
2021/03/11 01:11:42;;;;;;;1999.90;999.90;;;8.20;99.90;;;;;;4863512;29;20171;-81
2021/03/11 01:14:08;;;;;;;1999.90;999.90;;;8.20;99.90;;;;;;4863977;29;20654;-81
2021/03/11 01:16:33;;;;;;;1999.90;999.90;;;8.20;99.90;;;;;;4863938;29;20235;-81
2021/03/11 01:18:59;;;;;;;1999.90;999.90;;;8.20;99.90;;;;;;4867246;29;20441;-81
2021/03/11 01:21:25;;;;;;;1999.90;999.90;;;8.30;99.90;;;;;;4867064;29;20172;-81
2021/03/11 01:23:51;;;;;;;1999.90;999.90;;;8.30;99.90;;;;;;4867103;29;20637;-80
2021/03/11 01:26:16;;;;;;;1999.90;999.90;;;8.20;99.90;;;;;;4867502;29;20231;-80
2021/03/11 01:28:42;;;;;;;1999.90;999.90;;;8.20;99.90;;;;;;4867582;29;20904;-81
2021/03/11 01:31:08;;;;;;;1999.90;999.90;;;8.10;99.90;;;;;;4866155;29;20180;-81
2021/03/11 01:33:34;;;;;;;1999.90;999.90;;;8.10;99.90;;;;;;4867574;29;20464;-81
2021/03/11 01:35:59;;;;;;;1999.90;999.90;;;8.20;99.90;;;;;;4867847;29;20540;-81
2021/03/11 01:38:26;;;;;;;1999.90;999.90;;;8.10;99.90;;;;;;4866925;29;20195;-81
2021/03/11 01:40:53;;;;;;;1999.90;999.90;;;8.10;99.90;;;;;;4867187;29;20167;-81
2021/03/11 01:43:19;;;;;;;1999.90;999.90;;;8.10;99.90;;;;;;4865634;29;20675;-81
2021/03/11 01:45:44;;;;;;;1999.90;999.90;;;8.20;99.90;;;;;;4938159;23;20228;-80
2021/03/11 01:48:10;;;;;;;1999.90;999.90;;;8.10;99.90;;;;;;4883671;29;20170;-80
2021/03/11 01:50:36;;;;;;;1999.90;999.90;;;8.10;99.90;;;;;;4883836;29;20219;-80
2021/03/11 01:53:02;;;;;;;1999.90;999.90;;;8.20;99.90;;;;;;4878905;29;20468;-80
2021/03/11 01:55:28;;;;;;;1999.90;999.90;;;8.20;99.90;;;;;;4864894;29;20195;-80
2021/03/11 01:57:56;;;;;;;1999.90;999.90;;;8.20;99.90;;;;;;4864930;29;20166;-80
2021/03/11 02:00:21;;;;;;;1999.90;999.90;;;8.20;99.90;;;;;;4865377;29;20163;-80
2021/03/11 02:02:47;;;;;;;1999.90;999.90;;;8.30;99.90;;;;;;4865515;29;20572;-80
2021/03/11 02:05:15;;;;;;;1999.90;999.90;;;8.30;99.90;;;;;;4865011;29;20497;-80
2021/03/11 02:07:41;;;;;;;1999.90;999.90;;;8.20;99.90;;;;;;4865517;29;20175;-80
2021/03/11 02:10:09;;;;;;;1999.90;999.90;;;8.30;99.90;;;;;;4864766;29;20167;-80
2021/03/11 02:13:00;;;;;;;1999.90;999.90;;;8.20;99.90;;;;;;4864842;29;20227;-80
2021/03/11 02:15:38;;;;;;;1999.90;999.90;;;8.20;99.90;;;;;;4864742;29;20166;-80
2021/03/11 02:18:07;;;;;;;1999.90;999.90;;;8.20;99.90;;;;;;4863407;29;20163;-80
2021/03/11 02:20:52;;;;;;;1999.90;999.90;;;8.20;99.90;;;;;;4865236;29;20175;-80
2021/03/11 02:23:39;;;;;;;1999.90;999.90;;;8.20;99.90;;;;;;4864911;29;20187;-80
2021/03/11 02:26:16;;;;;;;1999.90;999.90;;;8.20;99.90;;;;;;4864960;29;20162;-80
2021/03/11 02:29:10;;;;;;;1999.90;999.90;;;8.20;99.90;;;;;;4864394;29;20162;-80
2021/03/11 02:31:39;;;;;;;1999.90;999.90;;;8.30;99.90;;;;;;4864358;29;20175;-80
2021/03/11 02:34:24;;;;;;;1999.90;999.90;;;8.30;99.90;;;;;;4864586;29;20624;-80
2021/03/11 02:37:03;;;;;;;1999.90;999.90;;;8.20;99.90;;;;;;4864625;29;20520;-80
2021/03/11 02:39:30;;;;;;;1999.90;999.90;;;8.20;99.90;;;;;;4864555;29;20163;-80
2021/03/11 02:41:58;;;;;;;1999.90;999.90;;;8.20;99.90;;;;;;4864553;29;20168;-80
2021/03/11 02:44:25;;;;;;;1999.90;999.90;;;8.30;99.90;;;;;;4864913;29;20279;-80
2021/03/11 02:46:52;;;;;;;1999.90;999.90;;;8.20;99.90;;;;;;4864734;29;20183;-80
2021/03/11 02:49:20;;;;;;;1999.90;999.90;;;8.20;99.90;;;;;;4864389;29;20167;-80
2021/03/11 02:51:48;;;;;;;1999.90;999.90;;;8.20;99.90;;;;;;4864357;29;20171;-80
2021/03/11 02:54:15;;;;;;;1999.90;999.90;;;8.30;99.90;;;;;;4864234;29;20210;-79
2021/03/11 02:56:41;;;;;;;1999.90;999.90;;;8.30;99.90;;;;;;4864095;29;20181;-80
2021/03/11 02:59:09;;;;;;;1999.90;999.90;;;8.30;99.90;;;;;;4864388;29;20168;-80
2021/03/11 03:01:37;;;;;;;1999.90;999.90;;;8.30;99.90;;;;;;4863577;29;20508;-80
2021/03/11 03:04:04;;;;;;;1999.90;999.90;;;8.30;99.90;;;;;;4863817;29;20202;-80
2021/03/11 03:06:31;;;;;;;1999.90;999.90;;;8.30;99.90;;;;;;4864483;29;20168;-80
2021/03/11 03:08:58;;;;;;;1999.90;999.90;;;8.30;99.90;;;;;;4863930;29;20173;-79
2021/03/11 03:11:24;;;;;;;1999.90;999.90;;;8.30;99.90;;;;;;4863964;29;20178;-80
2021/03/11 03:13:51;;;;;;;1999.90;999.90;;;8.30;99.90;;;;;;4863871;29;20207;-80
2021/03/11 03:16:18;;;;;;;1999.90;999.90;;;8.30;99.90;;;;;;4864103;29;20412;-80
2021/03/11 03:18:44;;;;;;;1999.90;999.90;;;8.30;99.90;;;;;;4864154;29;20296;-80
2021/03/11 03:21:12;;;;;;;1999.90;999.90;;;8.30;99.90;;;;;;4864010;29;20653;-80
2021/03/11 03:23:41;;;;;;;1999.90;999.90;;;8.40;99.90;;;;;;4864033;29;20195;-80
2021/03/11 03:26:07;;;;;;;1999.90;999.90;;;8.30;99.90;;;;;;4863880;29;20171;-80
2021/03/11 03:28:33;;;;;;;1999.90;999.90;;;8.40;99.90;;;;;;4863995;29;20171;-80
2021/03/11 03:30:59;;;;;;;1999.90;999.90;;;8.40;99.90;;;;;;4863917;29;20254;-80
2021/03/11 03:33:24;;;;;;;1999.90;999.90;;;8.40;99.90;;;;;;4863780;29;20463;-80
2021/03/11 03:35:50;;;;;;;1999.90;999.90;;;8.40;99.90;;;;;;4863967;29;20412;-80
2021/03/11 03:38:16;;;;;;;1999.90;999.90;;;8.40;99.90;;;;;;4863715;29;20666;-80
2021/03/11 03:40:42;;;;;;;1999.90;999.90;;;8.40;99.90;;;;;;4863044;29;20764;-80
2021/03/11 03:43:12;;;;;;;1999.90;999.90;;;8.40;99.90;;;;;;4863477;29;20617;-80
2021/03/11 03:45:41;;;;;;;1999.90;999.90;;;8.40;99.90;;;;;;4864611;29;20178;-80
2021/03/11 03:48:10;;;;;;;1999.90;999.90;;;8.40;99.90;;;;;;4864354;29;20204;-80
2021/03/11 03:50:37;;;;;;;1999.90;999.90;;;8.50;99.90;;;;;;4863523;29;20193;-80
2021/03/11 03:53:08;;;;;;;1999.90;999.90;;;8.40;99.90;;;;;;4863390;29;20294;-80
2021/03/11 03:55:37;;;;;;;1999.90;999.90;;;8.40;99.90;;;;;;4863881;29;20182;-80
2021/03/11 03:58:04;;;;;;;1999.90;999.90;;;8.40;99.90;;;;;;4863922;29;20174;-80
2021/03/11 04:00:30;;;;;;;1999.90;999.90;;;8.40;99.90;;;;;;4863815;29;20190;-80
2021/03/11 04:02:58;;;;;;;1999.90;999.90;;;8.40;99.90;;;;;;4863229;29;20744;-80
2021/03/11 04:05:24;;;;;;;1999.90;999.90;;;8.30;99.90;;;;;;4863128;29;20182;-80
2021/03/11 04:07:52;;;;;;;1999.90;999.90;;;8.40;99.90;;;;;;4863150;29;20171;-80
2021/03/11 04:10:18;;;;;;;1999.90;999.90;;;8.50;99.90;;;;;;4862116;29;20171;-80
2021/03/11 04:12:46;;;;;;;1999.90;999.90;;;8.40;99.90;;;;;;4863367;29;20203;-80
2021/03/11 04:15:12;;;;;;;1999.90;999.90;;;8.40;99.90;;;;;;4863292;29;20163;-80
2021/03/11 04:17:38;;;;;;;1999.90;999.90;;;8.50;99.90;;;;;;4862029;29;20163;-80
2021/03/11 04:20:06;;;;;;;1999.90;999.90;;;8.50;99.90;;;;;;4863273;29;20172;-80
2021/03/11 04:22:33;;;;;;;1999.90;999.90;;;8.40;99.90;;;;;;4862296;29;20175;-80
2021/03/11 04:24:59;;;;;;;1999.90;999.90;;;8.50;99.90;;;;;;4863299;29;20171;-80
2021/03/11 04:27:26;;;;;;;1999.90;999.90;;;8.50;99.90;;;;;;4863295;29;20182;-80
2021/03/11 04:29:53;;;;;;;1999.90;999.90;;;8.50;99.90;;;;;;4863265;29;20179;-80
2021/03/11 04:32:19;;;;;;;1999.90;999.90;;;8.50;99.90;;;;;;4862520;29;20235;-80
2021/03/11 04:34:45;;;;;;;1999.90;999.90;;;8.50;99.90;;;;;;4863126;29;20192;-80
2021/03/11 04:37:11;;;;;;;1999.90;999.90;;;8.50;99.90;;;;;;4863150;29;20164;-78
2021/03/11 04:39:37;;;;;;;1999.90;999.90;;;8.50;99.90;;;;;;4864045;29;20419;-80
2021/03/11 04:42:03;;;;;;;1999.90;999.90;;;8.50;99.90;;;;;;4863947;29;20471;-80
2021/03/11 04:44:29;;;;;;;1999.90;999.90;;;8.50;99.90;;;;;;4863689;29;20254;-80
2021/03/11 04:46:56;;;;;;;1999.90;999.90;;;8.60;99.90;;;;;;4863176;29;20693;-80
2021/03/11 04:49:28;;;;;;;1999.90;999.90;;;8.60;99.90;;;;;;4863768;29;20659;-80
2021/03/11 04:51:54;;;;;;;1999.90;999.90;;;8.60;99.90;;;;;;4864965;29;20173;-81
2021/03/11 04:54:20;;;;;;;1999.90;999.90;;;8.60;99.90;;;;;;4866816;29;20277;-80
2021/03/11 04:56:47;;;;;;;1999.90;999.90;;;8.70;99.90;;;;;;4867275;29;20587;-80
2021/03/11 04:59:14;;;;;;;1999.90;999.90;;;8.70;99.90;;;;;;4867170;29;20408;-80
2021/03/11 05:01:42;;;;;;;1999.90;999.90;;;8.70;99.90;;;;;;4867056;29;20231;-80
2021/03/11 05:04:11;;;;;;;1999.90;999.90;;;8.70;99.90;;;;;;4866897;29;20188;-80
2021/03/11 05:06:39;;;;;;;1999.90;999.90;;;8.70;99.90;;;;;;4865736;29;20235;-80
2021/03/11 05:09:05;;;;;;;1999.90;999.90;;;8.70;99.90;;;;;;4867074;29;20536;-80
2021/03/11 05:11:31;;;;;;;1999.90;999.90;;;8.70;99.90;;;;;;4865545;29;20266;-80
2021/03/11 05:13:57;;;;;;;1999.90;999.90;;;8.70;99.90;;;;;;4865268;29;20491;-80
2021/03/11 05:16:22;;;;;;;1999.90;999.90;;;8.70;99.90;;;;;;4867079;29;20210;-80
2021/03/11 05:18:48;;;;;;;1999.90;999.90;;;8.70;99.90;;;;;;4866440;29;20167;-80
2021/03/11 05:21:14;;;;;;;1999.90;999.90;;;8.70;99.90;;;;;;4866444;29;20626;-81
2021/03/11 05:23:39;;;;;;;1999.90;999.90;;;8.80;99.90;;;;;;4865113;29;20195;-80
2021/03/11 05:26:05;;;;;;;1999.90;999.90;;;8.80;99.90;;;;;;4864789;29;20448;-81
2021/03/11 05:28:31;;;;;;;1999.90;999.90;;;8.80;99.90;;;;;;4866536;29;20477;-80
2021/03/11 05:30:57;;;;;;;1999.90;999.90;;;8.80;99.90;;;;;;4866396;29;20539;-81
2021/03/11 05:33:23;;;;;;;1999.90;999.90;;;8.80;99.90;;;;;;4865820;29;20218;-81
2021/03/11 05:35:48;;;;;;;1999.90;999.90;;;8.90;99.90;;;;;;4865943;29;20443;-80
2021/03/11 05:38:14;;;;;;;1999.90;999.90;;;8.90;99.90;;;;;;4865620;29;20191;-80
2021/03/11 05:40:40;;;;;;;1999.90;999.90;;;9.00;99.90;;;;;;4865870;29;20246;-80
2021/03/11 05:43:07;;;;;;;1999.90;999.90;;;9.00;99.90;;;;;;4866625;29;20195;-80
2021/03/11 05:45:34;;;;;;;1999.90;999.90;;;9.00;99.90;;;;;;4865675;29;20257;-80
2021/03/11 05:48:01;;;;;;;1999.90;999.90;;;9.10;99.90;;;;;;4865729;29;20160;-80
2021/03/11 05:50:27;;;;;;;1999.90;999.90;;;9.10;99.90;;;;;;4866354;29;20254;-80
2021/03/11 05:52:55;;;;;;;1999.90;999.90;;;9.10;99.90;;;;;;4865594;29;20222;-81
2021/03/11 05:55:22;;;;;;;1999.90;999.90;;;9.10;99.90;;;;;;4866079;29;20167;-81
2021/03/11 05:57:48;;;;;;;1999.90;999.90;;;9.20;99.90;;;;;;4864772;29;20171;-80
2021/03/11 06:00:16;;;;;;;1999.90;999.90;;;9.20;99.90;;;;;;4864440;29;20190;-80
2021/03/11 06:02:48;;;;;;;1999.90;999.90;;;9.10;99.90;;;;;;4868949;29;20175;-80
2021/03/11 06:05:17;;;;;;;1999.90;999.90;;;9.20;99.90;;;;;;4868892;29;20526;-80
2021/03/11 06:07:48;;;;;;;1999.90;999.90;;;9.20;99.90;;;;;;4869698;29;20207;-80
2021/03/11 06:10:16;;;;;;;1999.90;999.90;;;9.20;99.90;;;;;;4869889;29;20258;-80
2021/03/11 06:12:43;;;;;;;1999.90;999.90;;;9.20;99.90;;;;;;4862676;29;20199;-80
2021/03/11 06:15:12;;;;;;;1999.90;999.90;;;9.20;99.90;;;;;;4863860;29;20274;-80
2021/03/11 06:17:40;;;;;;;1999.90;999.90;;;9.20;99.90;;;;;;4864209;29;20520;-80
2021/03/11 06:20:08;;;;;;;1999.90;999.90;;;9.30;99.90;;;;;;4863255;29;20195;-80
2021/03/11 06:22:34;;;;;;;1999.90;999.90;;;9.40;99.90;;;;;;4863622;29;20168;-79
2021/03/11 06:25:00;;;;;;;1999.90;999.90;;;9.30;99.90;;;;;;4864751;29;20198;-80
2021/03/11 06:27:26;;;;;;;1999.90;999.90;;;9.30;99.90;;;;;;4863673;29;20539;-80
2021/03/11 06:29:52;;;;;;;1999.90;999.90;;;9.30;99.90;;;;;;4864100;29;20178;-80
2021/03/11 06:32:18;;;;;;;1999.90;999.90;;;9.30;99.90;;;;;;4863740;29;20180;-80
2021/03/11 06:34:43;;;;;;;1999.90;999.90;;;9.40;99.90;;;;;;4863333;29;20206;-80
2021/03/11 06:37:14;;;;;;;1999.90;999.90;;;9.40;99.90;;;;;;4863437;29;20171;-80
2021/03/11 06:39:41;;;;;;;1999.90;999.90;;;9.40;99.90;;;;;;4865012;29;20284;-80
2021/03/11 06:42:08;;;;;;;1999.90;999.90;;;9.50;99.90;;;;;;4864412;29;20172;-80
2021/03/11 06:44:37;;;;;;;1999.90;999.90;;;9.40;99.90;;;;;;4864975;29;20767;-80
2021/03/11 06:47:06;;;;;;;1999.90;999.90;;;9.50;99.90;;;;;;4863776;29;20202;-80
2021/03/11 06:49:32;;;;;;;1999.90;999.90;;;9.50;99.90;;;;;;4864380;29;20175;-80
2021/03/11 06:52:13;;;;;;;1999.90;999.90;;;9.50;99.90;;;;;;4863318;29;20175;-80
2021/03/11 06:55:09;;;;;;;1999.90;999.90;;;9.60;99.90;;;;;;4863287;29;20579;-80
2021/03/11 06:57:40;;;;;;;1999.90;999.90;;;9.60;99.90;;;;;;4864326;29;20186;-80
2021/03/11 07:00:16;;;;;;;1999.90;999.90;;;9.60;99.90;;;;;;4864197;29;20167;-80
2021/03/11 07:02:58;;;;;;;1999.90;999.90;;;9.60;99.90;;;;;;4864883;29;20665;-80
2021/03/11 07:05:26;;;;;;;1999.90;999.90;;;9.60;99.90;;;;;;4863598;29;20167;-80
2021/03/11 07:08:14;;;;;;;1999.90;999.90;;;9.60;99.90;;;;;;4864354;29;20189;-80
2021/03/11 07:10:44;;;;;;;1999.90;999.90;;;9.60;99.90;;;;;;4864805;29;20207;-81
2021/03/11 07:13:10;;;;;;;1999.90;999.90;;;9.60;99.90;;;;;;4863638;29;20207;-80
2021/03/11 07:15:37;;;;;;;1999.90;999.90;;;9.60;99.90;;;;;;4865331;29;20658;-81
2021/03/11 07:18:20;;;;;;;1999.90;999.90;;;9.70;99.90;;;;;;4865136;29;20469;-81
2021/03/11 07:20:45;;;;;;;1999.90;999.90;;;9.70;99.90;;;;;;4865053;29;20166;-80
2021/03/11 07:23:15;;;;;;;1999.90;999.90;;;9.80;99.90;;;;;;4864177;29;20187;-80
2021/03/11 07:25:42;;;;;;;1999.90;999.90;;;9.80;99.90;;;;;;4864333;29;20388;-80
2021/03/11 07:28:20;;;;;;;1999.90;999.90;;;9.90;99.90;;;;;;4864263;29;20167;-80
2021/03/11 07:30:58;;;;;;;1999.90;999.90;;;9.90;99.90;;;;;;4864879;29;20164;-80
2021/03/11 07:33:26;;;;;;;1999.90;999.90;;;9.90;99.90;;;;;;4864654;29;20207;-79
2021/03/11 07:35:58;;;;;;;1999.90;999.90;;;10.00;99.90;;;;;;4863175;29;20449;-80
2021/03/11 07:38:26;;;;;;;1999.90;999.90;;;10.00;99.90;;;;;;4864235;29;20152;-80
2021/03/11 07:40:57;;;;;;;1999.90;999.90;;;10.00;99.90;;;;;;4863873;29;20179;-80
2021/03/11 07:43:28;;;;;;;1999.90;999.90;;;10.10;99.90;;;;;;4863289;29;20198;-79
2021/03/11 08:13:29;;;;;;;1999.90;999.90;;;10.80;99.90;;;;;;4875522;29;20192;-88
2021/03/11 08:16:22;;;;;;;1999.90;999.90;;;10.80;99.90;;;;;;4867617;29;20174;-87
2021/03/11 08:18:53;;;;;;;1999.90;999.90;;;10.70;99.90;;;;;;4860926;29;20673;-88
2021/03/11 08:21:29;;;;;;;1999.90;999.90;;;10.60;99.90;;;;;;4863386;29;20230;-88
2021/03/11 08:24:31;;;;;;;1999.90;999.90;;;10.60;99.90;;;;;;4862360;29;20214;-88
2021/03/11 08:26:59;;;;;;;1999.90;999.90;;;10.60;99.90;;;;;;4861835;29;20183;-88
2021/03/11 08:29:40;;;;;;;1999.90;999.90;;;10.60;99.90;;;;;;4863844;29;20235;-88
2021/03/11 08:32:53;;;;;;;1999.90;999.90;;;10.70;99.90;;;;;;4863747;29;20258;-88
2021/03/11 08:35:50;;;;;;;1999.90;999.90;;;10.70;99.90;;;;;;4863973;29;20186;-88
2021/03/11 08:38:45;;;;;;;1999.90;999.90;;;10.80;99.90;;;;;;4869165;29;20564;-88
2021/03/11 08:41:42;;;;;;;1999.90;999.90;;;10.90;99.90;;;;;;4864512;29;20159;-88
2021/03/11 08:44:16;;;;;;;1999.90;999.90;;;10.90;99.90;;;;;;4864168;29;20187;-88
2021/03/11 08:51:45;;;;;;;;;;;;;;;;;;;;;
2021/03/11 08:54:22;;;;;;;1999.90;999.90;;;11.10;99.90;;;;;;4791275;29;20225;-88
2021/03/11 08:57:05;;;;;;;1999.90;999.90;;;11.10;99.90;;;;;;4825770;29;20172;-87
2021/03/11 08:59:57;;;;;;;1999.90;999.90;;;11.00;99.90;;;;;;4879361;29;20270;-88
2021/03/11 09:18:37;;;;;;;1999.90;999.90;;;11.10;99.90;;;;;;1260633;27;20230;-88
2021/03/11 09:21:52;;;;;;;1999.90;999.90;;;11.10;99.90;;;;;;4859274;29;20182;-88
2021/03/11 09:24:29;;;;;;;1999.90;999.90;;;11.10;99.90;;;;;;5245068;23;20218;-88
2021/03/11 09:27:18;;;;;;;1999.90;999.90;;;11.20;99.90;;;;;;4881676;29;20190;-88
2021/03/11 09:29:55;;;;;;;1999.90;999.90;;;11.30;99.90;;;;;;4882845;29;20187;-88
2021/03/11 09:33:02;;;;;;;1999.90;999.90;;;11.50;99.90;;;;;;4880894;29;20174;-90
2021/03/11 09:35:49;;;;;;;1999.90;999.90;;;11.60;99.90;;;;;;4847831;29;20191;-89
2021/03/11 09:39:00;;;;;;;1999.90;999.90;;;11.60;99.90;;;;;;4862468;29;20156;-87
2021/03/11 09:41:26;;;;;;;1999.90;999.90;;;11.40;99.90;;;;;;4845265;29;20174;-87
2021/03/11 09:44:02;;;;;;;1999.90;999.90;;;11.20;99.90;;;;;;4863329;29;20198;-87
2021/03/11 09:46:40;;;;;;;1999.90;999.90;;;11.10;99.90;;;;;;4863633;29;20250;-89
2021/03/11 09:49:08;;;;;;;1999.90;999.90;;;11.00;99.90;;;;;;4863517;29;20159;-88
2021/03/11 09:51:44;;;;;;;1999.90;999.90;;;11.00;99.90;;;;;;4859788;29;20238;-87
2021/03/11 09:54:13;;;;;;;1999.90;999.90;;;11.10;99.90;;;;;;4861857;29;20615;-89
2021/03/11 09:56:45;;;;;;;1999.90;999.90;;;11.00;99.90;;;;;;4861671;29;20175;-89
2021/03/11 09:59:14;;;;;;;1999.90;999.90;;;11.00;99.90;;;;;;4861490;29;20182;-90
2021/03/11 10:02:16;;;;;;;1999.90;999.90;;;11.00;99.90;;;;;;4870451;29;20262;-89
2021/03/11 10:04:42;;;;;;;1999.90;999.90;;;10.90;99.90;;;;;;4794324;29;20240;-90
2021/03/11 10:07:14;;;;;;;1999.90;999.90;;;10.90;99.90;;;;;;4865743;29;20179;-89
2021/03/11 10:26:17;;;;;;;1999.90;999.90;;;11.10;99.90;;;;;;5182076;23;20304;-89
2021/03/11 10:29:11;;;;;;;1999.90;999.90;;;11.30;99.90;;;;;;4879858;29;20643;-88
2021/03/11 10:31:49;;;;;;;1999.90;999.90;;;11.70;99.90;;;;;;4864283;29;20560;-87
2021/03/11 10:34:58;;;;;;;1999.90;999.90;;;12.00;99.90;;;;;;4879079;29;20270;-86
2021/03/11 10:38:32;;;;;;;1999.90;999.90;;;12.30;99.90;;;;;;4876839;29;20179;-87
2021/03/11 10:40:50;;;;;;;1999.90;999.90;;;12.70;99.90;;;;;;4863915;29;20203;-87
2021/03/11 10:43:47;;;;;;;1999.90;999.90;;;13.00;99.90;;;;;;4880063;29;20729;-87
2021/03/11 10:46:34;;;;;;;1999.90;999.90;;;13.20;99.90;;;;;;4880711;29;20619;-86
2021/03/11 10:49:32;;;;;;;1999.90;999.90;;;13.40;99.90;;;;;;4860808;29;20187;-88
2021/03/11 10:51:58;;;;;;;1999.90;999.90;;;13.50;99.90;;;;;;4860816;29;20187;-86
2021/03/11 10:54:46;;;;;;;;;;;;;;;;;;;;;
2021/03/11 10:57:34;;;;;;;1999.90;999.90;;;13.80;99.90;;;;;;4881830;29;20490;-88
2021/03/11 11:00:21;;;;;;;1999.90;999.90;;;13.90;99.90;;;;;;4879394;29;20249;-87
2021/03/11 11:10:39;;;;;;;1999.90;999.90;;;14.40;99.90;;;;;;4906895;23;20240;-88
2021/03/11 11:13:11;;;;;;;1999.90;999.90;;;14.40;98.60;;;;;;4878735;29;20244;-89
2021/03/11 11:16:07;;;;;;;1999.90;999.90;;;14.50;88.00;;;;;;4879188;29;20240;-89
2021/03/11 11:18:33;;;;;;;1999.90;999.90;;;14.60;93.80;;;;;;4881615;29;20237;-88
2021/03/11 11:22:08;;;;;;;1999.90;999.90;;;14.70;95.20;;;;;;4881099;29;20643;-89
2021/03/11 11:24:56;;;;;;;1999.90;999.90;;;14.80;82.50;;;;;;4893465;23;20238;-89
2021/03/11 11:27:25;;;;;;;1999.90;999.90;;;15.00;84.20;;;;;;4879490;29;20166;-88
2021/03/11 11:29:58;;;;;;;1999.90;999.90;;;15.00;49.90;;;;;;4880443;29;20250;-88
2021/03/11 11:32:30;;;;;;;1999.90;999.90;;;14.90;52.80;;;;;;4880345;29;20214;-89
2021/03/11 11:35:05;;;;;;;1999.90;999.90;;;14.90;57.60;;;;;;4880042;29;20199;-89
2021/03/11 11:37:34;;;;;;;1999.90;999.90;;;14.70;45.60;;;;;;4880285;29;20519;-90
2021/03/11 11:40:00;;;;;;;1999.90;999.90;;;14.70;45.50;;;;;;4880421;29;20178;-87
2021/03/11 11:42:28;;;;;;;1999.90;999.90;;;14.60;46.50;;;;;;4880275;29;20666;-88
2021/03/11 11:44:59;;;;;;;1999.90;999.90;;;14.60;48.70;;;;;;4879738;29;20562;-88
2021/03/11 11:47:25;;;;;;;1999.90;999.90;;;14.60;41.80;;;;;;4880709;29;20171;-87
2021/03/11 11:49:54;;;;;;;1999.90;999.90;;;14.40;34.70;;;;;;4878824;29;20205;-88
2021/03/11 11:52:29;;;;;;;1999.90;999.90;;;14.30;35.90;;;;;;4880041;29;20494;-89
2021/03/11 11:55:10;;;;;;;1999.90;999.90;;;14.10;40.50;;;;;;4878574;29;20198;-88
2021/03/11 11:57:50;;;;;;;1999.90;999.90;;;14.00;49.70;;;;;;4879241;29;20185;-89
2021/03/11 12:00:20;;;;;;;1999.90;999.90;;;14.10;45.20;;;;;;4880491;29;20512;-88
2021/03/11 12:02:55;;;;;;;1999.90;999.90;;;14.30;49.80;;;;;;4878121;29;20166;-87
2021/03/11 12:05:29;;;;;;;1999.90;999.90;;;14.20;46.00;;;;;;4879801;29;20226;-89
2021/03/11 12:07:54;;;;;;;1999.90;999.90;;;14.20;49.00;;;;;;4880056;29;20158;-89
2021/03/11 12:10:36;;;;;;;1999.90;999.90;;;14.20;47.30;;;;;;4879840;29;20167;-88
2021/03/11 12:13:07;;;;;;;1999.90;999.90;;;14.20;61.40;;;;;;4873704;29;20210;-89
2021/03/11 12:15:34;;;;;;;1999.90;999.90;;;14.40;53.00;;;;;;4879713;29;20165;-87
2021/03/11 12:18:00;;;;;;;1999.90;999.90;;;14.50;31.30;;;;;;4878227;29;20175;-88
2021/03/11 12:20:33;;;;;;;1999.90;999.90;;;14.60;35.50;;;;;;4879584;29;20547;-89
2021/03/11 12:22:59;;;;;;;1999.90;999.90;;;14.80;35.20;;;;;;4879292;29;20451;-88
2021/03/11 12:25:27;;;;;;;1999.90;999.90;;;15.00;30.40;;;;;;4879876;29;20206;-88
2021/03/11 12:28:11;;;;;;;1999.90;999.90;;;15.10;27.30;;;;;;4878812;29;20182;-88
2021/03/11 12:30:46;;;;;;;1999.90;999.90;;;15.00;28.90;;;;;;4879436;29;20147;-87
2021/03/11 12:33:32;;;;;;;1999.90;999.90;;;15.00;27.60;;;;;;4878152;29;20296;-90
2021/03/11 12:36:09;;;;;;;1999.90;999.90;;;14.80;31.70;;;;;;4879746;29;20245;-90
2021/03/11 12:41:45;;;;;;;1999.90;999.90;;;14.40;86.20;;;;;;4880226;29;20182;-92
2021/03/11 12:44:11;;;;;;;1999.90;999.90;;;14.40;96.70;;;;;;4872296;29;20226;-89
2021/03/11 12:46:46;;;;;;;1999.90;999.90;;;14.40;96.30;;;;;;4877789;29;20179;-92
2021/03/11 12:49:11;;;;;;;1999.90;999.90;;;14.60;91.00;;;;;;4879138;29;20181;-89
2021/03/11 12:51:37;;;;;;;1999.90;999.90;;;14.60;85.80;;;;;;4877995;29;20175;-90
2021/03/11 12:54:06;;;;;;;1999.90;999.90;;;14.80;94.30;;;;;;4878069;29;20221;-91
2021/03/11 12:56:52;;;;;;;1999.90;999.90;;;14.90;86.40;;;;;;4879614;29;20178;-92
2021/03/11 12:59:24;;;;;;;1999.90;999.90;;;14.90;87.70;;;;;;4878330;29;20179;-94
2021/03/11 13:02:15;;;;;;;1999.90;999.90;;;15.00;90.00;;;;;;4879207;29;20415;-90
2021/03/11 13:12:33;;;;;;;1999.90;999.90;;;15.20;75.40;;;;;;5170430;23;20693;-92
2021/03/11 13:15:36;;;;;;;1999.90;999.90;;;15.00;74.40;;;;;;4862746;29;20214;-91
2021/03/11 13:18:40;;;;;;;1999.90;999.90;;;15.10;75.80;;;;;;4864844;29;20180;-90
2021/03/11 13:24:31;;;;;;;1999.90;999.90;;;15.50;54.70;;;;;;4864436;29;20202;-91
2021/03/11 13:27:39;;;;;;;1999.90;999.90;;;15.40;40.60;;;;;;4863900;29;20243;-91
2021/03/11 13:30:23;;;;;;;1999.90;999.90;;;15.30;30.00;;;;;;4864408;29;20171;-89
2021/03/11 13:33:07;;;;;;;1999.90;999.90;;;15.20;35.30;;;;;;4863035;29;20722;-85
2021/03/11 13:36:02;;;;;;;1999.90;999.90;;;15.10;25.90;;;;;;4863883;29;20452;-90
2021/03/11 13:41:42;;;;;;;1999.90;999.90;;;14.70;24.00;;;;;;4863847;29;20266;-90
2021/03/11 13:44:41;;;;;;;1999.90;999.90;;;14.50;27.10;;;;;;4862526;29;20199;-89
2021/03/11 13:50:56;;;;;;;;;;;;;;;;;;;;;
2021/03/11 13:54:05;;;;;;;1999.90;999.90;;;14.70;27.20;;;;;;4863399;29;20215;-89
2021/03/11 13:56:43;;;;;;;1999.90;999.90;;;14.80;29.60;;;;;;4825081;29;20179;-89
2021/03/11 14:02:56;;;;;;;1999.90;999.90;;;14.70;32.00;;;;;;4838831;29;20258;-89
2021/03/11 14:05:38;;;;;;;1999.90;999.90;;;14.70;20.00;;;;;;4861478;29;20183;-90
2021/03/11 14:08:56;;;;;;;1999.90;999.90;;;14.60;21.50;;;;;;4862489;29;20210;-90
2021/03/11 14:11:49;;;;;;;1999.90;999.90;;;14.50;25.30;;;;;;4838112;29;20189;-90
2021/03/11 14:18:28;;;;;;;1999.90;999.90;;;14.70;22.20;;;;;;4847590;29;20679;-91